LIRP Airport Information

Runway Information
Runway 04L Length 9160 ft width 141 ft
Elevation 2 ft Threshold 979 ft Heading 37
Runway 22R Length 9160 ft Width 141 ft
Elevation 6 ft Threshold 0 ft Heading 217
Runway 04R Length 9820 ft width 148 ft
Elevation 3 ft Threshold 490 ft Heading 37
Runway 22L Length 9820 ft Width 148 ft
Elevation 6 ft Threshold 843 ft Heading 217
Airport Frequencies
Type APP Name APP Frequency 122.1 MHZ
Type GND Name GND Frequency 121.6 MHZ
Type TWR Name TWR Frequency 119.1 MHZ
Airport Navaids
Type TACAN Name Pisa Frequency 108300 KHZ
Type VOR-DME Name Pisa Frequency 112100 KHZ
Type NDB Name Pisa Frequency 379 KHZ
Airport Weather Information & NOTAM
ADDS - METARS form results

(0141 UTC 22 January 2019)
Data provider http://aviationweather.gov/metar/data/
 
METAR text: LIRP 220115Z 11007KT 9999 SCT050 BKN060 07/02 Q1011 NOSIG
Conditions at: LIRP (PISA (CIV/IT-AFB, IT) observed 0115 UTC 22 January 2019
Temperature: 7.0°C (45°F)
Dewpoint: 2.0°C (36°F) [RH = 70%]
Pressure (altimeter): 29.85 inches Hg (1011.0 mb)
Winds: from the ESE (110 degrees) at 8 MPH (7 knots; 3.6 m/s)
Visibility: 6 or more miles (10+ km)
Ceiling: 6000 feet AGL
Clouds: scattered clouds at 5000 feet AGL
broken clouds at 6000 feet AGL
Weather: no significant weather observed at this time

METAR text: LIRP 220045Z 12007KT 9999 SCT050 BKN060 07/02 Q1011 NOSIG
Conditions at: LIRP (PISA (CIV/IT-AFB, IT) observed 0045 UTC 22 January 2019
Temperature: 7.0°C (45°F)
Dewpoint: 2.0°C (36°F) [RH = 70%]
Pressure (altimeter): 29.85 inches Hg (1011.0 mb)
Winds: from the ESE (120 degrees) at 8 MPH (7 knots; 3.6 m/s)
Visibility: 6 or more miles (10+ km)
Ceiling: 6000 feet AGL
Clouds: scattered clouds at 5000 feet AGL
broken clouds at 6000 feet AGL
Weather: no significant weather observed at this time

Forecast for: LIRP (PISA (CIV/IT-AFB, IT)
Text: TAF LIRP 212300Z 2200/2224 12010KT 9999 SCT020 BKN050
Forecast period: 0000 UTC 22 January 2019 to 0000 UTC 23 January 2019
Forecast type: FROM: standard forecast or significant change
Winds: from the ESE (120 degrees) at 12 MPH (10 knots; 5.1 m/s)
Visibility: 6 or more miles 10+ km)
Ceiling: 5000 feet AGL
Clouds: scattered clouds at 2000 feet AGL
broken clouds at 5000 feet AGL
Weather: no significant weather forecast for this period
Text: TEMPO 2206/2224 5000 RA BR
Forecast period: 0600 UTC 22 January 2019 to 0000 UTC 23 January 2019
Forecast type: TEMPORARY: The following changes expected for less than half the time period
Visibility: 3 miles (5 km)
Ceiling: unknown
Clouds: missing
Weather: RA BR  (moderate rain, mist)